createdAt,value
2017-12-15T00:01:49.993Z,46.35
2017-12-15T00:04:17.821Z,56.67
2017-12-15T00:06:45.670Z,38.53
2017-12-15T00:09:13.525Z,74.75
2017-12-15T00:11:41.360Z,50.90
2017-12-15T00:14:09.203Z,54.55
2017-12-15T00:16:37.033Z,65.10
2017-12-15T00:19:04.853Z,72.70
2017-12-15T00:21:32.666Z,46.08
2017-12-15T00:24:00.491Z,53.10
2017-12-15T00:26:29.081Z,59.20
2017-12-15T00:28:56.978Z,45.05
2017-12-15T00:31:24.804Z,44.92
2017-12-15T00:33:52.670Z,64.53
2017-12-15T00:36:20.794Z,57.05
2017-12-15T00:38:48.628Z,67.18
2017-12-15T00:41:16.477Z,56.67
2017-12-15T00:43:44.348Z,59.55
2017-12-15T00:46:12.178Z,60.63
2017-12-15T00:48:40.008Z,62.80
2017-12-15T00:51:07.837Z,53.58
2017-12-15T00:53:35.697Z,52.10
2017-12-15T00:56:03.520Z,55.95
2017-12-15T00:58:31.358Z,54.83
2017-12-15T01:00:59.213Z,63.92
2017-12-15T01:03:27.024Z,49.70
2017-12-15T01:05:54.849Z,51.97
2017-12-15T01:08:22.676Z,55.65
2017-12-15T01:10:50.529Z,54.30
2017-12-15T01:15:52.868Z,62.33
2017-12-15T01:18:20.704Z,46.22
2017-12-15T01:20:48.543Z,43.58
2017-12-15T01:23:16.377Z,61.13
2017-12-15T01:25:44.239Z,49.85
2017-12-15T01:28:12.059Z,53.63
2017-12-15T01:30:39.893Z,54.70
2017-12-15T01:33:07.763Z,50.63
2017-12-15T01:35:35.626Z,52.22
2017-12-15T01:38:03.453Z,57.20
2017-12-15T01:40:31.311Z,52.75
2017-12-15T01:42:59.185Z,54.08
2017-12-15T01:45:27.044Z,55.78
2017-12-15T01:47:54.889Z,50.40
2017-12-15T01:50:22.719Z,45.78
2017-12-15T01:52:50.576Z,55.28
2017-12-15T01:55:18.404Z,52.53
2017-12-15T01:57:46.253Z,55.17
2017-12-15T02:00:14.106Z,51.75
2017-12-15T02:02:41.964Z,48.42
2017-12-15T02:05:09.787Z,40.05
2017-12-15T02:07:37.671Z,55.65
2017-12-15T02:10:05.516Z,59.58
2017-12-15T02:12:33.384Z,49.33
2017-12-15T02:15:01.233Z,58.75
2017-12-15T02:17:29.088Z,40.28
2017-12-15T02:19:56.935Z,47.88
2017-12-15T02:22:24.804Z,48.13
2017-12-15T02:24:52.635Z,54.72
2017-12-15T02:27:20.512Z,43.55
2017-12-15T02:29:48.360Z,53.83
2017-12-15T02:32:16.215Z,55.20
2017-12-15T02:34:44.075Z,47.03
2017-12-15T02:37:11.905Z,47.90
2017-12-15T02:39:39.767Z,50.67
2017-12-15T02:42:07.581Z,61.72
2017-12-15T02:44:35.437Z,49.42
2017-12-15T02:47:03.298Z,58.65
2017-12-15T02:49:31.169Z,53.65
2017-12-15T02:51:59.053Z,54.85
2017-12-15T02:54:26.900Z,50.53
2017-12-15T02:56:54.727Z,63.30
2017-12-15T02:59:22.594Z,59.45
2017-12-15T03:01:50.459Z,62.85
2017-12-15T03:04:18.320Z,51.37
2017-12-15T03:06:46.157Z,45.67
2017-12-15T03:09:14.019Z,54.50
2017-12-15T03:11:41.883Z,55.95
2017-12-15T03:14:09.750Z,55.95
2017-12-15T03:16:37.581Z,59.47
2017-12-15T03:19:05.452Z,51.97
2017-12-15T03:21:33.327Z,62.97
2017-12-15T03:24:01.170Z,51.88
2017-12-15T03:26:29.024Z,46.67
2017-12-15T03:28:56.887Z,48.83
2017-12-15T03:31:24.736Z,48.45
2017-12-15T03:33:52.566Z,52.20
2017-12-15T03:36:20.416Z,50.30
2017-12-15T03:38:48.260Z,53.28
2017-12-15T03:41:16.128Z,58.90
2017-12-15T03:43:43.972Z,61.15
2017-12-15T03:46:11.836Z,50.35
2017-12-15T03:48:39.666Z,55.45
2017-12-15T03:51:07.493Z,49.08
2017-12-15T03:53:35.344Z,45.90
2017-12-15T03:56:03.184Z,57.90
2017-12-15T03:58:31.016Z,45.50
2017-12-15T04:00:58.853Z,44.65
2017-12-15T04:03:26.693Z,36.42
2017-12-15T04:05:54.503Z,46.45
2017-12-15T04:08:22.364Z,43.10
2017-12-15T04:10:50.191Z,43.72
2017-12-15T04:13:18.037Z,44.47
2017-12-15T04:15:45.869Z,34.67
2017-12-15T04:18:13.727Z,53.38
2017-12-15T04:20:41.695Z,41.30
2017-12-15T04:23:09.885Z,45.85
2017-12-15T04:25:37.869Z,46.45
2017-12-15T04:28:05.720Z,44.72
2017-12-15T04:30:33.556Z,46.50
2017-12-15T04:33:01.421Z,47.45
2017-12-15T04:35:29.261Z,44.33
2017-12-15T04:37:57.100Z,55.42
2017-12-15T04:40:24.933Z,45.85
2017-12-15T04:42:52.757Z,51.47
2017-12-15T04:45:20.602Z,45.08
2017-12-15T04:47:48.488Z,53.03
2017-12-15T04:50:16.336Z,48.08
2017-12-15T04:52:44.177Z,55.85
2017-12-15T04:55:12.022Z,51.65
2017-12-15T04:57:39.870Z,71.95
2017-12-15T05:00:07.692Z,61.15
2017-12-15T05:02:35.577Z,56.30
2017-12-15T05:05:03.417Z,52.70
2017-12-15T05:07:31.252Z,52.72
2017-12-15T05:09:59.101Z,60.25
2017-12-15T05:12:26.920Z,59.60
2017-12-15T05:14:54.756Z,65.85
2017-12-15T05:17:22.592Z,62.80
2017-12-15T05:19:50.480Z,62.80
2017-12-15T05:22:18.411Z,57.35
2017-12-15T05:24:46.308Z,58.10
2017-12-15T05:27:14.157Z,52.90
2017-12-15T05:29:41.988Z,59.38
2017-12-15T05:32:09.836Z,55.67
2017-12-15T05:34:37.667Z,65.53
2017-12-15T05:37:05.541Z,65.47
2017-12-15T05:39:33.406Z,55.83
2017-12-15T05:42:01.272Z,53.65
2017-12-15T05:44:29.137Z,58.03
2017-12-15T05:46:56.983Z,61.60
2017-12-15T05:49:24.789Z,56.37
2017-12-15T05:51:52.629Z,63.97
2017-12-15T05:54:20.500Z,65.43
2017-12-15T05:56:48.337Z,56.67
2017-12-15T05:59:16.136Z,80.05
2017-12-15T06:01:44.000Z,72.40
2017-12-15T06:04:11.861Z,60.85
2017-12-15T06:06:39.736Z,63.33
2017-12-15T06:09:07.703Z,62.83
2017-12-15T06:11:35.571Z,64.37
2017-12-15T06:14:03.437Z,71.10
2017-12-15T06:16:31.281Z,62.45
2017-12-15T06:18:59.161Z,48.67
2017-12-15T06:21:26.996Z,72.10
2017-12-15T06:23:54.812Z,63.38
2017-12-15T06:26:22.712Z,72.43
2017-12-15T06:28:50.581Z,50.58
2017-12-15T06:31:18.452Z,62.85
2017-12-15T06:33:46.357Z,66.30
2017-12-15T06:36:14.229Z,72.65
2017-12-15T06:38:42.089Z,66.82
2017-12-15T06:41:09.961Z,82.50
2017-12-15T06:43:37.784Z,64.90
2017-12-15T06:46:05.677Z,65.75
2017-12-15T06:48:36.890Z,71.20
2017-12-15T06:51:04.966Z,64.55
2017-12-15T06:53:32.822Z,64.25
2017-12-15T06:56:00.649Z,48.78
2017-12-15T06:58:28.513Z,63.70
2017-12-15T07:00:56.368Z,65.43
2017-12-15T07:03:24.261Z,66.60
2017-12-15T07:05:52.104Z,66.30
2017-12-15T07:08:19.965Z,51.60
2017-12-15T07:10:47.809Z,68.82
2017-12-15T07:13:15.699Z,61.08
2017-12-15T07:15:43.561Z,61.95
2017-12-15T07:18:11.432Z,79.55
2017-12-15T07:20:39.282Z,66.72
2017-12-15T07:23:07.121Z,58.42
2017-12-15T07:25:34.980Z,82.25
2017-12-15T07:28:09.272Z,74.07
2017-12-15T07:30:37.165Z,65.00
2017-12-15T07:33:05.050Z,69.05
2017-12-15T07:35:32.955Z,67.60
2017-12-15T07:38:07.261Z,77.97
2017-12-15T07:40:35.184Z,79.95
2017-12-15T07:43:03.053Z,64.18
2017-12-15T07:45:30.915Z,92.70
2017-12-15T07:48:04.766Z,82.32
2017-12-15T07:50:32.632Z,66.65
2017-12-15T07:53:00.765Z,71.53
2017-12-15T07:55:28.619Z,69.47
2017-12-15T07:57:56.499Z,74.07
2017-12-15T08:00:24.376Z,76.93
2017-12-15T08:02:52.265Z,91.12
2017-12-15T08:05:20.108Z,81.22
2017-12-15T08:07:48.012Z,71.75
2017-12-15T08:10:15.865Z,70.07
2017-12-15T08:12:43.737Z,72.05
2017-12-15T08:15:11.660Z,70.72
2017-12-15T08:17:39.579Z,79.00
2017-12-15T08:20:07.434Z,75.20
2017-12-15T08:22:35.300Z,81.00
2017-12-15T08:25:03.178Z,73.93
2017-12-15T08:27:31.032Z,86.60
2017-12-15T08:29:58.899Z,72.00
2017-12-15T08:32:26.732Z,71.95
2017-12-15T08:34:54.600Z,78.37
2017-12-15T08:37:22.404Z,73.72
2017-12-15T08:39:50.261Z,78.18
2017-12-15T08:42:18.122Z,70.72
2017-12-15T08:44:45.988Z,86.87
2017-12-15T08:47:13.874Z,83.95
2017-12-15T08:49:41.716Z,74.37
2017-12-15T08:52:09.590Z,85.05
2017-12-15T08:54:37.427Z,77.28
2017-12-15T08:57:05.347Z,76.25
2017-12-15T08:59:33.172Z,79.20
2017-12-15T09:02:01.003Z,76.50
2017-12-15T09:04:28.817Z,81.80
2017-12-15T09:06:56.628Z,71.05
2017-12-15T09:09:24.451Z,69.43
2017-12-15T09:11:52.297Z,64.20
2017-12-15T09:14:20.120Z,84.68
2017-12-15T09:16:47.964Z,83.93
2017-12-15T09:19:15.852Z,71.15
2017-12-15T09:21:43.685Z,66.93
2017-12-15T09:24:11.529Z,51.47
2017-12-15T09:26:39.392Z,78.10
2017-12-15T09:29:07.244Z,67.62
2017-12-15T09:31:35.104Z,69.85
2017-12-15T09:34:02.972Z,69.20
2017-12-15T09:36:30.788Z,73.05
2017-12-15T09:38:58.638Z,73.50
2017-12-15T09:41:26.460Z,59.00
2017-12-15T09:43:54.304Z,72.97
2017-12-15T09:46:22.156Z,89.57
2017-12-15T09:48:50.006Z,75.68
2017-12-15T09:51:17.875Z,68.45
2017-12-15T09:53:45.718Z,71.82
2017-12-15T09:56:13.533Z,73.72
2017-12-15T09:58:41.368Z,89.37
2017-12-15T10:01:09.216Z,64.87
2017-12-15T10:03:37.100Z,64.37
2017-12-15T10:06:04.940Z,82.90
2017-12-15T10:08:32.809Z,75.25
2017-12-15T10:11:00.653Z,82.90
2017-12-15T10:13:28.496Z,77.15
2017-12-15T10:15:56.308Z,79.47
2017-12-15T10:18:24.165Z,86.60
2017-12-15T10:20:52.053Z,43.28
2017-12-15T10:23:19.896Z,74.45
2017-12-15T10:25:47.749Z,72.15
2017-12-15T10:28:15.565Z,73.18
2017-12-15T10:30:43.422Z,74.53
2017-12-15T10:33:11.267Z,63.58
2017-12-15T10:35:39.145Z,67.47
2017-12-15T10:38:06.922Z,49.38
2017-12-15T10:40:34.771Z,70.55
2017-12-15T10:43:02.607Z,74.37
2017-12-15T10:45:30.444Z,91.93
2017-12-15T10:47:58.281Z,61.55
2017-12-15T10:50:26.117Z,83.32
2017-12-15T10:52:53.968Z,85.82
2017-12-15T10:55:21.848Z,48.55
2017-12-15T10:57:49.670Z,72.45
2017-12-15T11:00:17.482Z,70.75
2017-12-15T11:02:45.351Z,61.80
2017-12-15T11:05:13.246Z,63.20
2017-12-15T11:07:41.104Z,64.60
2017-12-15T11:10:08.945Z,67.85
2017-12-15T11:12:36.784Z,69.55
2017-12-15T11:15:04.606Z,71.82
2017-12-15T11:17:32.466Z,67.37
2017-12-15T11:20:00.405Z,58.05
2017-12-15T11:22:28.224Z,61.78
2017-12-15T11:24:56.324Z,62.00
2017-12-15T11:27:24.372Z,65.43
2017-12-15T11:29:52.240Z,69.07
2017-12-15T11:32:20.118Z,65.97
2017-12-15T11:34:48.177Z,62.22
2017-12-15T11:37:23.498Z,56.67
2017-12-15T11:40:13.142Z,68.53
2017-12-15T11:42:42.026Z,67.68
2017-12-15T11:48:02.169Z,68.00
2017-12-15T11:50:30.348Z,66.72
2017-12-15T11:52:58.529Z,60.12
2017-12-15T11:58:31.898Z,69.07
2017-12-15T12:09:27.011Z,68.68
2017-12-15T12:20:22.824Z,62.45
2017-12-15T12:22:50.842Z,53.70
2017-12-15T12:25:18.793Z,68.25
2017-12-15T12:27:46.880Z,53.38
2017-12-15T12:30:14.849Z,67.72
2017-12-15T12:32:42.682Z,49.50
2017-12-15T12:35:10.547Z,54.63
2017-12-15T12:37:38.456Z,59.60
2017-12-15T12:40:06.279Z,69.07
2017-12-15T12:42:34.126Z,67.12
2017-12-15T12:45:01.978Z,60.12
2017-12-15T12:47:29.833Z,57.60
2017-12-15T12:49:57.704Z,59.50
2017-12-15T12:52:25.539Z,57.58
2017-12-15T12:54:53.413Z,59.63
2017-12-15T12:57:21.288Z,68.20
2017-12-15T12:59:49.153Z,68.12
2017-12-15T13:02:16.999Z,57.40
2017-12-15T13:05:00.700Z,58.00
2017-12-15T13:07:28.571Z,66.57
2017-12-15T13:09:56.446Z,63.97
2017-12-15T13:12:24.312Z,58.60
2017-12-15T13:14:52.201Z,57.75
2017-12-15T13:17:20.069Z,64.55
2017-12-15T13:19:47.932Z,71.45
2017-12-15T13:22:15.798Z,57.80
2017-12-15T13:24:43.666Z,54.53
2017-12-15T13:27:11.534Z,68.10
2017-12-15T13:29:39.421Z,67.18
2017-12-15T13:32:07.261Z,70.35
2017-12-15T13:34:35.129Z,69.75
2017-12-15T13:37:02.997Z,61.83
2017-12-15T13:39:30.857Z,55.63
2017-12-15T13:41:58.684Z,74.97
2017-12-15T13:44:26.522Z,84.80
2017-12-15T13:46:54.397Z,99.87
2017-12-15T13:49:22.224Z,86.10
2017-12-15T13:51:50.128Z,82.30
2017-12-15T13:54:18.000Z,80.72
2017-12-15T13:56:45.875Z,78.70
2017-12-15T13:59:13.728Z,85.57
2017-12-15T14:01:41.579Z,85.72
2017-12-15T14:04:16.192Z,71.95
2017-12-15T14:06:44.057Z,97.82
2017-12-15T14:09:11.924Z,82.93
2017-12-15T14:11:39.780Z,93.82
2017-12-15T14:14:07.641Z,75.22
2017-12-15T14:16:35.477Z,73.90
2017-12-15T14:19:03.365Z,68.43
2017-12-15T14:21:31.197Z,85.45
2017-12-15T14:23:59.051Z,75.15
2017-12-15T14:26:26.897Z,56.15
2017-12-15T14:28:54.749Z,77.62
2017-12-15T14:31:22.596Z,77.43
2017-12-15T14:33:50.468Z,84.47
2017-12-15T14:36:18.321Z,83.22
2017-12-15T14:38:52.900Z,87.07
2017-12-15T14:41:20.887Z,70.53
2017-12-15T14:43:48.877Z,80.07
2017-12-15T14:46:16.723Z,85.28
2017-12-15T14:48:51.761Z,73.62
2017-12-15T14:51:12.580Z,72.75
2017-12-15T14:53:40.432Z,75.03
2017-12-15T14:56:08.298Z,80.38
2017-12-15T14:58:36.227Z,76.47
2017-12-15T15:01:04.075Z,78.40
2017-12-15T15:03:31.925Z,94.18
2017-12-15T15:05:59.812Z,89.85
2017-12-15T15:08:27.655Z,73.93
2017-12-15T15:10:55.501Z,75.25
2017-12-15T15:13:23.351Z,74.93
2017-12-15T15:15:51.248Z,72.35
2017-12-15T15:18:25.334Z,82.28
2017-12-15T15:20:53.220Z,83.22
2017-12-15T15:23:21.081Z,78.97
2017-12-15T15:25:48.941Z,88.05
2017-12-15T15:28:16.807Z,78.95
2017-12-15T15:30:51.097Z,105.25
2017-12-15T15:33:22.484Z,92.57
2017-12-15T15:41:43.963Z,98.62
2017-12-15T15:44:11.866Z,109.80
2017-12-15T15:46:39.850Z,95.30
2017-12-15T15:49:08.006Z,112.72
2017-12-15T15:51:43.965Z,115.57
2017-12-15T15:54:15.688Z,90.60
2017-12-15T15:56:43.660Z,97.82
2017-12-15T15:59:11.626Z,108.60
2017-12-15T16:01:39.667Z,104.15
2017-12-15T16:04:07.645Z,96.85
2017-12-15T16:06:35.531Z,116.85
2017-12-15T16:09:03.521Z,97.82
2017-12-15T16:14:36.491Z,102.53
2017-12-15T16:17:15.399Z,90.00
2017-12-15T16:19:44.463Z,93.82
2017-12-15T16:25:14.069Z,92.93
2017-12-15T16:27:42.030Z,95.35
2017-12-15T16:30:09.865Z,97.18
2017-12-15T16:32:37.754Z,87.93
2017-12-15T16:35:05.613Z,90.90
2017-12-15T16:37:33.471Z,92.80
2017-12-15T16:40:01.321Z,102.00
2017-12-15T16:42:29.152Z,91.47
2017-12-15T16:44:57.015Z,75.70
2017-12-15T16:47:24.861Z,79.57
2017-12-15T16:49:52.703Z,90.60
2017-12-15T16:52:20.562Z,79.53
2017-12-15T16:54:48.459Z,61.37
2017-12-15T16:57:16.320Z,70.28
2017-12-15T16:59:44.197Z,75.30
2017-12-15T17:02:12.043Z,63.25
2017-12-15T17:04:39.893Z,66.60
2017-12-15T17:07:07.812Z,72.37
2017-12-15T17:09:35.604Z,69.62
2017-12-15T17:12:03.437Z,65.40
2017-12-15T17:14:31.324Z,72.85
2017-12-15T17:16:59.168Z,71.35
2017-12-15T17:19:27.018Z,68.28
2017-12-15T17:21:54.888Z,65.87
2017-12-15T17:24:22.796Z,56.85
2017-12-15T17:26:50.673Z,76.75
2017-12-15T17:29:18.563Z,64.35
2017-12-15T17:31:46.496Z,60.42
2017-12-15T17:34:14.364Z,46.45
2017-12-15T17:36:42.216Z,79.95
2017-12-15T17:39:10.060Z,64.72
2017-12-15T17:41:37.917Z,53.03
2017-12-15T17:44:05.782Z,67.00
2017-12-15T17:46:33.680Z,59.90
2017-12-15T17:49:01.533Z,66.82
2017-12-15T17:51:29.449Z,61.25
2017-12-15T17:53:57.296Z,65.57
2017-12-15T17:56:25.188Z,60.72
2017-12-15T17:58:53.088Z,66.12
2017-12-15T18:01:20.949Z,66.82
2017-12-15T18:03:48.841Z,50.50
2017-12-15T18:06:16.679Z,63.08
2017-12-15T18:08:44.521Z,59.97
2017-12-15T18:11:12.373Z,54.83
2017-12-15T18:13:40.207Z,60.45
2017-12-15T18:16:08.044Z,48.72
2017-12-15T18:18:35.914Z,69.28
2017-12-15T18:21:03.807Z,57.33
2017-12-15T18:23:31.693Z,53.58
2017-12-15T18:25:59.560Z,61.05
2017-12-15T18:28:27.427Z,61.70
2017-12-15T18:30:55.251Z,58.45
2017-12-15T18:33:23.120Z,57.15
2017-12-15T18:35:50.966Z,62.55
2017-12-15T18:38:18.804Z,70.15
2017-12-15T18:40:46.655Z,51.47
2017-12-15T18:43:14.529Z,53.40
2017-12-15T18:45:42.394Z,55.35
2017-12-15T18:48:10.264Z,66.20
2017-12-15T18:50:38.131Z,51.42
2017-12-15T18:53:05.985Z,54.63
2017-12-15T18:55:33.821Z,49.92
2017-12-15T18:58:04.738Z,68.25
2017-12-15T19:00:32.598Z,57.38
2017-12-15T19:03:00.441Z,64.65
2017-12-15T19:05:28.306Z,59.97
2017-12-15T19:07:56.144Z,47.60
2017-12-15T19:10:23.970Z,57.50
2017-12-15T19:12:51.860Z,56.47
2017-12-15T19:15:19.750Z,57.78
2017-12-15T19:17:47.670Z,61.85
2017-12-15T19:20:15.560Z,57.53
2017-12-15T19:22:43.490Z,51.30
2017-12-15T19:25:11.388Z,69.00
2017-12-15T19:27:39.244Z,55.55
2017-12-15T19:30:07.214Z,56.30
2017-12-15T19:32:44.069Z,51.10
2017-12-15T19:35:15.509Z,63.00
2017-12-15T19:37:43.389Z,60.42
2017-12-15T19:40:11.353Z,50.35
2017-12-15T19:42:39.224Z,48.75
2017-12-15T19:45:07.049Z,56.60
2017-12-15T19:47:34.921Z,57.15
2017-12-15T19:50:02.812Z,53.80
2017-12-15T19:52:30.677Z,50.08
2017-12-15T19:54:58.523Z,49.75
2017-12-15T20:00:16.575Z,50.00
2017-12-15T20:02:44.471Z,66.47
2017-12-15T20:05:12.339Z,53.30
2017-12-15T20:07:40.184Z,56.80
2017-12-15T20:10:08.046Z,50.65
2017-12-15T20:12:35.891Z,59.75
2017-12-15T20:15:03.756Z,53.17
2017-12-15T20:17:35.237Z,68.80
2017-12-15T20:20:03.144Z,43.40
2017-12-15T20:22:31.025Z,55.88
2017-12-15T20:24:58.938Z,53.67
2017-12-15T20:27:26.794Z,55.95
2017-12-15T20:29:54.660Z,53.70
2017-12-15T20:32:22.543Z,54.95
2017-12-15T20:34:50.416Z,51.70
2017-12-15T20:39:59.745Z,56.30
2017-12-15T20:45:21.321Z,50.85
2017-12-15T20:47:49.234Z,57.53
2017-12-15T20:50:17.091Z,46.22
2017-12-15T20:52:44.955Z,56.25
2017-12-15T20:55:12.819Z,58.72
2017-12-15T20:57:46.944Z,50.22
2017-12-15T21:00:14.849Z,61.35
2017-12-15T21:02:42.720Z,61.25
2017-12-15T21:05:10.605Z,45.22
2017-12-15T21:07:38.466Z,50.88
2017-12-15T21:10:06.332Z,36.05
2017-12-15T21:12:34.234Z,55.15
2017-12-15T21:15:02.105Z,47.35
2017-12-15T21:17:29.963Z,51.28
2017-12-15T21:19:57.865Z,53.87
2017-12-15T21:22:25.712Z,61.13
2017-12-15T21:24:53.573Z,47.53
2017-12-15T21:27:21.433Z,52.92
2017-12-15T21:29:49.305Z,53.72
2017-12-15T21:32:17.197Z,54.80
2017-12-15T21:34:45.094Z,53.30
2017-12-15T21:37:12.973Z,45.40
2017-12-15T21:39:40.891Z,49.15
2017-12-15T21:42:08.747Z,46.40
2017-12-15T21:44:36.626Z,60.30
2017-12-15T21:47:04.577Z,60.25
2017-12-15T21:49:32.468Z,47.13
2017-12-15T21:52:00.336Z,53.25
2017-12-15T21:54:28.189Z,50.15
2017-12-15T21:56:56.097Z,56.92
2017-12-15T21:59:23.966Z,57.22
2017-12-15T22:01:51.827Z,60.12
2017-12-15T22:04:19.690Z,54.70
2017-12-15T22:06:47.580Z,58.28
2017-12-15T22:09:15.422Z,59.72
2017-12-15T22:11:43.321Z,59.03
2017-12-15T22:14:11.194Z,55.42
2017-12-15T22:16:39.093Z,55.22
2017-12-15T22:19:06.968Z,67.87
2017-12-15T22:21:34.854Z,52.40
2017-12-15T22:24:02.762Z,57.05
2017-12-15T22:26:30.644Z,52.15
2017-12-15T22:28:58.528Z,50.67
2017-12-15T22:31:26.403Z,55.38
2017-12-15T22:33:54.283Z,48.05
2017-12-15T22:36:22.152Z,54.20
2017-12-15T22:38:56.966Z,49.05
2017-12-15T22:41:25.697Z,47.78
2017-12-15T22:43:53.585Z,51.55
2017-12-15T22:46:21.447Z,52.47
2017-12-15T22:48:49.296Z,47.28
2017-12-15T22:51:17.184Z,43.47
2017-12-15T22:53:45.000Z,40.88
2017-12-15T22:56:12.836Z,26.70
2017-12-15T22:58:40.689Z,52.88
2017-12-15T23:01:08.541Z,39.60
2017-12-15T23:03:44.845Z,43.17
2017-12-15T23:06:13.913Z,49.15
2017-12-15T23:08:50.868Z,38.70
2017-12-15T23:11:19.957Z,46.20
2017-12-15T23:13:50.728Z,38.40
2017-12-15T23:16:18.739Z,46.15
2017-12-15T23:18:48.574Z,40.88
2017-12-15T23:21:27.128Z,37.35
2017-12-15T23:23:55.357Z,46.37
2017-12-15T23:26:23.511Z,49.00
2017-12-15T23:28:51.968Z,45.08
2017-12-15T23:31:45.560Z,38.60
2017-12-15T23:34:14.002Z,66.93
2017-12-15T23:36:42.182Z,64.30
2017-12-15T23:39:10.122Z,42.60
2017-12-15T23:41:37.965Z,47.95
2017-12-15T23:44:05.829Z,50.00
2017-12-15T23:46:33.777Z,49.58
2017-12-15T23:49:01.629Z,52.33
2017-12-15T23:51:29.577Z,46.05
2017-12-15T23:56:54.359Z,55.72
2017-12-15T23:59:22.224Z,37.55
